sensor_id;sensor_type;location;lat;lon;timestamp;P1;durP1;ratioP1;P2;durP2;ratioP2
19754;SDS011;10036;47.812;9.274;2023-05-14T00:01:51;12.80;;;11.45;;
19754;SDS011;10036;47.812;9.274;2023-05-14T00:04:19;16.13;;;13.65;;
19754;SDS011;10036;47.812;9.274;2023-05-14T00:06:46;14.05;;;12.57;;
19754;SDS011;10036;47.812;9.274;2023-05-14T00:09:12;16.67;;;12.27;;
19754;SDS011;10036;47.812;9.274;2023-05-14T00:11:40;13.98;;;12.38;;
19754;SDS011;10036;47.812;9.274;2023-05-14T00:14:07;15.30;;;13.40;;
19754;SDS011;10036;47.812;9.274;2023-05-14T00:16:33;15.48;;;13.50;;
19754;SDS011;10036;47.812;9.274;2023-05-14T00:19:00;17.25;;;12.80;;
19754;SDS011;10036;47.812;9.274;2023-05-14T00:21:29;16.15;;;13.05;;
19754;SDS011;10036;47.812;9.274;2023-05-14T00:23:56;14.48;;;12.65;;
19754;SDS011;10036;47.812;9.274;2023-05-14T00:26:23;16.77;;;13.27;;
19754;SDS011;10036;47.812;9.274;2023-05-14T00:28:50;15.10;;;12.10;;
19754;SDS011;10036;47.812;9.274;2023-05-14T00:31:17;13.73;;;12.25;;
19754;SDS011;10036;47.812;9.274;2023-05-14T00:33:43;13.35;;;11.95;;
19754;SDS011;10036;47.812;9.274;2023-05-14T00:36:10;14.73;;;11.75;;
19754;SDS011;10036;47.812;9.274;2023-05-14T00:38:38;12.45;;;11.25;;
19754;SDS011;10036;47.812;9.274;2023-05-14T00:41:05;12.93;;;11.57;;
19754;SDS011;10036;47.812;9.274;2023-05-14T00:43:32;13.35;;;11.35;;
19754;SDS011;10036;47.812;9.274;2023-05-14T00:45:59;18.02;;;12.75;;
19754;SDS011;10036;47.812;9.274;2023-05-14T00:48:26;18.23;;;13.07;;
19754;SDS011;10036;47.812;9.274;2023-05-14T00:50:53;12.82;;;11.20;;
19754;SDS011;10036;47.812;9.274;2023-05-14T00:53:20;15.02;;;11.57;;
19754;SDS011;10036;47.812;9.274;2023-05-14T00:55:49;15.25;;;11.63;;
19754;SDS011;10036;47.812;9.274;2023-05-14T00:58:16;15.02;;;11.45;;
19754;SDS011;10036;47.812;9.274;2023-05-14T01:00:43;20.02;;;13.25;;
19754;SDS011;10036;47.812;9.274;2023-05-14T01:03:10;14.00;;;11.90;;
19754;SDS011;10036;47.812;9.274;2023-05-14T01:05:39;13.93;;;11.55;;
19754;SDS011;10036;47.812;9.274;2023-05-14T01:08:13;12.55;;;10.55;;
19754;SDS011;10036;47.812;9.274;2023-05-14T01:10:49;12.98;;;10.38;;
19754;SDS011;10036;47.812;9.274;2023-05-14T01:13:24;12.07;;;10.77;;
19754;SDS011;10036;47.812;9.274;2023-05-14T01:15:55;12.27;;;10.95;;
19754;SDS011;10036;47.812;9.274;2023-05-14T01:18:24;13.48;;;10.65;;
19754;SDS011;10036;47.812;9.274;2023-05-14T01:20:54;11.38;;;10.27;;
19754;SDS011;10036;47.812;9.274;2023-05-14T01:23:22;12.05;;;10.02;;
19754;SDS011;10036;47.812;9.274;2023-05-14T01:25:50;12.10;;;10.80;;
19754;SDS011;10036;47.812;9.274;2023-05-14T01:28:18;11.27;;;10.07;;
19754;SDS011;10036;47.812;9.274;2023-05-14T01:30:51;11.85;;;10.30;;
19754;SDS011;10036;47.812;9.274;2023-05-14T01:33:21;11.90;;;10.45;;
19754;SDS011;10036;47.812;9.274;2023-05-14T01:35:52;12.35;;;10.15;;
19754;SDS011;10036;47.812;9.274;2023-05-14T01:38:20;12.55;;;9.50;;
19754;SDS011;10036;47.812;9.274;2023-05-14T01:40:49;11.27;;;9.57;;
19754;SDS011;10036;47.812;9.274;2023-05-14T01:43:17;10.63;;;9.32;;
19754;SDS011;10036;47.812;9.274;2023-05-14T01:45:44;12.30;;;10.05;;
19754;SDS011;10036;47.812;9.274;2023-05-14T01:48:11;13.13;;;10.38;;
19754;SDS011;10036;47.812;9.274;2023-05-14T01:50:38;11.75;;;8.50;;
19754;SDS011;10036;47.812;9.274;2023-05-14T01:53:05;10.95;;;8.88;;
19754;SDS011;10036;47.812;9.274;2023-05-14T01:55:32;11.00;;;9.70;;
19754;SDS011;10036;47.812;9.274;2023-05-14T01:58:00;15.20;;;11.00;;
19754;SDS011;10036;47.812;9.274;2023-05-14T02:00:27;11.35;;;10.15;;
19754;SDS011;10036;47.812;9.274;2023-05-14T02:02:54;10.68;;;9.48;;
19754;SDS011;10036;47.812;9.274;2023-05-14T02:05:23;12.57;;;9.60;;
19754;SDS011;10036;47.812;9.274;2023-05-14T02:07:52;11.27;;;10.05;;
19754;SDS011;10036;47.812;9.274;2023-05-14T02:10:19;12.15;;;9.68;;
19754;SDS011;10036;47.812;9.274;2023-05-14T02:12:46;11.45;;;10.10;;
19754;SDS011;10036;47.812;9.274;2023-05-14T02:15:14;13.95;;;10.00;;
19754;SDS011;10036;47.812;9.274;2023-05-14T02:17:41;13.82;;;9.68;;
19754;SDS011;10036;47.812;9.274;2023-05-14T02:20:08;11.75;;;10.05;;
19754;SDS011;10036;47.812;9.274;2023-05-14T02:22:36;11.18;;;9.98;;
19754;SDS011;10036;47.812;9.274;2023-05-14T02:25:06;11.23;;;10.00;;
19754;SDS011;10036;47.812;9.274;2023-05-14T02:27:34;13.18;;;10.40;;
19754;SDS011;10036;47.812;9.274;2023-05-14T02:30:01;12.23;;;10.13;;
19754;SDS011;10036;47.812;9.274;2023-05-14T02:32:29;19.65;;;12.27;;
19754;SDS011;10036;47.812;9.274;2023-05-14T02:34:56;13.40;;;11.18;;
19754;SDS011;10036;47.812;9.274;2023-05-14T02:37:23;14.23;;;11.35;;
19754;SDS011;10036;47.812;9.274;2023-05-14T02:39:50;11.57;;;9.45;;
19754;SDS011;10036;47.812;9.274;2023-05-14T02:42:17;11.10;;;9.05;;
19754;SDS011;10036;47.812;9.274;2023-05-14T02:44:44;12.68;;;9.80;;
19754;SDS011;10036;47.812;9.274;2023-05-14T02:47:11;12.35;;;10.70;;
19754;SDS011;10036;47.812;9.274;2023-05-14T02:49:39;14.05;;;10.93;;
19754;SDS011;10036;47.812;9.274;2023-05-14T02:52:06;11.38;;;10.05;;
19754;SDS011;10036;47.812;9.274;2023-05-14T02:54:33;13.02;;;10.75;;
19754;SDS011;10036;47.812;9.274;2023-05-14T02:57:00;11.63;;;10.43;;
19754;SDS011;10036;47.812;9.274;2023-05-14T02:59:27;11.80;;;10.15;;
19754;SDS011;10036;47.812;9.274;2023-05-14T03:01:55;11.60;;;9.80;;
19754;SDS011;10036;47.812;9.274;2023-05-14T03:04:22;11.35;;;10.07;;
19754;SDS011;10036;47.812;9.274;2023-05-14T03:06:50;10.57;;;9.52;;
19754;SDS011;10036;47.812;9.274;2023-05-14T03:09:17;11.10;;;9.90;;
19754;SDS011;10036;47.812;9.274;2023-05-14T03:11:44;13.93;;;10.32;;
19754;SDS011;10036;47.812;9.274;2023-05-14T03:14:11;10.65;;;9.55;;
19754;SDS011;10036;47.812;9.274;2023-05-14T03:16:38;12.93;;;10.93;;
19754;SDS011;10036;47.812;9.274;2023-05-14T03:19:06;12.55;;;10.02;;
19754;SDS011;10036;47.812;9.274;2023-05-14T03:21:33;14.30;;;10.80;;
19754;SDS011;10036;47.812;9.274;2023-05-14T03:24:02;11.25;;;9.88;;
19754;SDS011;10036;47.812;9.274;2023-05-14T03:26:29;11.68;;;10.20;;
19754;SDS011;10036;47.812;9.274;2023-05-14T03:28:55;11.90;;;9.95;;
19754;SDS011;10036;47.812;9.274;2023-05-14T03:31:22;12.30;;;11.00;;
19754;SDS011;10036;47.812;9.274;2023-05-14T03:33:49;13.70;;;11.43;;
19754;SDS011;10036;47.812;9.274;2023-05-14T03:36:16;14.77;;;11.63;;
19754;SDS011;10036;47.812;9.274;2023-05-14T03:38:43;15.43;;;11.38;;
19754;SDS011;10036;47.812;9.274;2023-05-14T03:41:11;12.45;;;11.00;;
19754;SDS011;10036;47.812;9.274;2023-05-14T03:43:38;15.60;;;11.98;;
19754;SDS011;10036;47.812;9.274;2023-05-14T03:46:05;18.52;;;12.57;;
19754;SDS011;10036;47.812;9.274;2023-05-14T03:48:32;15.48;;;12.23;;
19754;SDS011;10036;47.812;9.274;2023-05-14T03:50:59;17.25;;;12.23;;
19754;SDS011;10036;47.812;9.274;2023-05-14T03:53:25;15.55;;;12.13;;
19754;SDS011;10036;47.812;9.274;2023-05-14T03:55:52;17.45;;;13.43;;
19754;SDS011;10036;47.812;9.274;2023-05-14T03:58:21;15.27;;;12.45;;
19754;SDS011;10036;47.812;9.274;2023-05-14T04:00:47;15.65;;;13.18;;
19754;SDS011;10036;47.812;9.274;2023-05-14T04:03:14;15.40;;;12.32;;
19754;SDS011;10036;47.812;9.274;2023-05-14T04:05:41;19.85;;;14.57;;
19754;SDS011;10036;47.812;9.274;2023-05-14T04:08:08;16.92;;;13.55;;
19754;SDS011;10036;47.812;9.274;2023-05-14T04:10:35;14.68;;;13.05;;
19754;SDS011;10036;47.812;9.274;2023-05-14T04:13:02;14.25;;;11.95;;
19754;SDS011;10036;47.812;9.274;2023-05-14T04:15:30;16.42;;;13.23;;
19754;SDS011;10036;47.812;9.274;2023-05-14T04:17:57;17.25;;;13.25;;
19754;SDS011;10036;47.812;9.274;2023-05-14T04:20:24;18.15;;;13.70;;
19754;SDS011;10036;47.812;9.274;2023-05-14T04:22:51;16.77;;;13.50;;
19754;SDS011;10036;47.812;9.274;2023-05-14T04:25:18;15.80;;;12.73;;
19754;SDS011;10036;47.812;9.274;2023-05-14T04:27:46;14.48;;;12.35;;
19754;SDS011;10036;47.812;9.274;2023-05-14T04:30:12;15.27;;;11.95;;
19754;SDS011;10036;47.812;9.274;2023-05-14T04:32:41;15.85;;;12.15;;
19754;SDS011;10036;47.812;9.274;2023-05-14T04:35:08;15.10;;;12.30;;
19754;SDS011;10036;47.812;9.274;2023-05-14T04:37:36;16.42;;;13.05;;
19754;SDS011;10036;47.812;9.274;2023-05-14T04:40:05;17.90;;;13.65;;
19754;SDS011;10036;47.812;9.274;2023-05-14T04:42:33;17.40;;;13.93;;
19754;SDS011;10036;47.812;9.274;2023-05-14T04:45:00;22.02;;;15.43;;
19754;SDS011;10036;47.812;9.274;2023-05-14T04:47:29;20.52;;;15.23;;
19754;SDS011;10036;47.812;9.274;2023-05-14T04:49:57;19.48;;;14.48;;
19754;SDS011;10036;47.812;9.274;2023-05-14T04:52:24;16.92;;;13.65;;
19754;SDS011;10036;47.812;9.274;2023-05-14T04:54:51;17.80;;;13.57;;
19754;SDS011;10036;47.812;9.274;2023-05-14T04:57:18;21.48;;;14.68;;
19754;SDS011;10036;47.812;9.274;2023-05-14T04:59:45;18.38;;;14.02;;
19754;SDS011;10036;47.812;9.274;2023-05-14T05:02:12;19.63;;;14.90;;
19754;SDS011;10036;47.812;9.274;2023-05-14T05:04:39;22.65;;;15.32;;
19754;SDS011;10036;47.812;9.274;2023-05-14T05:07:07;21.88;;;15.48;;
19754;SDS011;10036;47.812;9.274;2023-05-14T05:09:34;21.98;;;15.73;;
19754;SDS011;10036;47.812;9.274;2023-05-14T05:12:01;21.20;;;14.88;;
19754;SDS011;10036;47.812;9.274;2023-05-14T05:14:28;20.60;;;15.35;;
19754;SDS011;10036;47.812;9.274;2023-05-14T05:16:55;24.02;;;14.80;;
19754;SDS011;10036;47.812;9.274;2023-05-14T05:19:22;21.75;;;15.55;;
19754;SDS011;10036;47.812;9.274;2023-05-14T05:21:49;20.35;;;15.00;;
19754;SDS011;10036;47.812;9.274;2023-05-14T05:24:17;19.10;;;14.45;;
19754;SDS011;10036;47.812;9.274;2023-05-14T05:26:47;21.15;;;15.43;;
19754;SDS011;10036;47.812;9.274;2023-05-14T05:29:15;19.83;;;15.40;;
19754;SDS011;10036;47.812;9.274;2023-05-14T05:31:42;20.88;;;14.98;;
19754;SDS011;10036;47.812;9.274;2023-05-14T05:34:09;19.15;;;14.27;;
19754;SDS011;10036;47.812;9.274;2023-05-14T05:36:36;19.40;;;14.10;;
19754;SDS011;10036;47.812;9.274;2023-05-14T05:39:03;20.08;;;14.55;;
19754;SDS011;10036;47.812;9.274;2023-05-14T05:41:31;17.02;;;13.48;;
19754;SDS011;10036;47.812;9.274;2023-05-14T05:43:58;17.45;;;12.93;;
19754;SDS011;10036;47.812;9.274;2023-05-14T05:46:25;17.65;;;13.38;;
19754;SDS011;10036;47.812;9.274;2023-05-14T05:48:52;21.08;;;14.82;;
19754;SDS011;10036;47.812;9.274;2023-05-14T05:51:18;18.08;;;13.95;;
19754;SDS011;10036;47.812;9.274;2023-05-14T05:53:45;21.63;;;14.38;;
19754;SDS011;10036;47.812;9.274;2023-05-14T05:56:12;18.05;;;13.93;;
19754;SDS011;10036;47.812;9.274;2023-05-14T05:58:40;16.92;;;13.95;;
19754;SDS011;10036;47.812;9.274;2023-05-14T06:01:07;17.67;;;13.75;;
19754;SDS011;10036;47.812;9.274;2023-05-14T06:03:34;18.63;;;14.20;;
19754;SDS011;10036;47.812;9.274;2023-05-14T06:06:01;19.65;;;14.48;;
19754;SDS011;10036;47.812;9.274;2023-05-14T06:08:28;22.90;;;15.40;;
19754;SDS011;10036;47.812;9.274;2023-05-14T06:10:55;20.20;;;14.68;;
19754;SDS011;10036;47.812;9.274;2023-05-14T06:13:22;16.95;;;13.98;;
19754;SDS011;10036;47.812;9.274;2023-05-14T06:15:50;19.05;;;15.10;;
19754;SDS011;10036;47.812;9.274;2023-05-14T06:18:17;16.48;;;13.68;;
19754;SDS011;10036;47.812;9.274;2023-05-14T06:20:44;20.20;;;14.85;;
19754;SDS011;10036;47.812;9.274;2023-05-14T06:23:11;16.92;;;12.88;;
19754;SDS011;10036;47.812;9.274;2023-05-14T06:25:38;17.27;;;13.15;;
19754;SDS011;10036;47.812;9.274;2023-05-14T06:28:05;16.40;;;13.30;;
19754;SDS011;10036;47.812;9.274;2023-05-14T06:30:31;19.52;;;13.02;;
19754;SDS011;10036;47.812;9.274;2023-05-14T06:33:00;16.13;;;12.40;;
19754;SDS011;10036;47.812;9.274;2023-05-14T06:35:27;16.05;;;12.55;;
19754;SDS011;10036;47.812;9.274;2023-05-14T06:37:53;15.68;;;12.00;;
19754;SDS011;10036;47.812;9.274;2023-05-14T06:40:23;14.65;;;11.18;;
19754;SDS011;10036;47.812;9.274;2023-05-14T06:42:50;12.45;;;9.80;;
19754;SDS011;10036;47.812;9.274;2023-05-14T06:45:16;10.68;;;8.63;;
19754;SDS011;10036;47.812;9.274;2023-05-14T06:47:46;10.13;;;7.75;;
19754;SDS011;10036;47.812;9.274;2023-05-14T06:50:15;9.45;;;7.20;;
19754;SDS011;10036;47.812;9.274;2023-05-14T06:52:41;10.27;;;8.15;;
19754;SDS011;10036;47.812;9.274;2023-05-14T06:55:09;10.52;;;8.40;;
19754;SDS011;10036;47.812;9.274;2023-05-14T06:57:36;11.98;;;9.40;;
19754;SDS011;10036;47.812;9.274;2023-05-14T07:00:04;12.73;;;10.10;;
19754;SDS011;10036;47.812;9.274;2023-05-14T07:02:31;13.02;;;10.38;;
19754;SDS011;10036;47.812;9.274;2023-05-14T07:04:58;13.15;;;10.60;;
19754;SDS011;10036;47.812;9.274;2023-05-14T07:07:27;15.75;;;11.95;;
19754;SDS011;10036;47.812;9.274;2023-05-14T07:09:54;15.55;;;11.20;;
19754;SDS011;10036;47.812;9.274;2023-05-14T07:12:21;16.65;;;11.80;;
19754;SDS011;10036;47.812;9.274;2023-05-14T07:14:47;17.52;;;12.65;;
19754;SDS011;10036;47.812;9.274;2023-05-14T07:17:14;16.70;;;12.43;;
19754;SDS011;10036;47.812;9.274;2023-05-14T07:19:41;16.05;;;12.80;;
19754;SDS011;10036;47.812;9.274;2023-05-14T07:22:08;15.00;;;12.20;;
19754;SDS011;10036;47.812;9.274;2023-05-14T07:24:36;14.32;;;11.50;;
19754;SDS011;10036;47.812;9.274;2023-05-14T07:27:03;15.73;;;11.23;;
19754;SDS011;10036;47.812;9.274;2023-05-14T07:29:30;14.02;;;11.45;;
19754;SDS011;10036;47.812;9.274;2023-05-14T07:31:59;15.13;;;12.00;;
19754;SDS011;10036;47.812;9.274;2023-05-14T07:34:25;14.80;;;12.07;;
19754;SDS011;10036;47.812;9.274;2023-05-14T07:36:52;14.98;;;11.90;;
19754;SDS011;10036;47.812;9.274;2023-05-14T07:39:20;15.48;;;12.57;;
19754;SDS011;10036;47.812;9.274;2023-05-14T07:41:48;16.38;;;12.32;;
19754;SDS011;10036;47.812;9.274;2023-05-14T07:44:16;16.45;;;12.45;;
19754;SDS011;10036;47.812;9.274;2023-05-14T07:46:42;17.60;;;12.85;;
19754;SDS011;10036;47.812;9.274;2023-05-14T07:49:09;16.42;;;12.75;;
19754;SDS011;10036;47.812;9.274;2023-05-14T07:51:36;16.55;;;12.57;;
19754;SDS011;10036;47.812;9.274;2023-05-14T07:54:03;14.90;;;11.68;;
19754;SDS011;10036;47.812;9.274;2023-05-14T07:56:30;13.90;;;11.10;;
19754;SDS011;10036;47.812;9.274;2023-05-14T07:58:58;15.02;;;11.55;;
19754;SDS011;10036;47.812;9.274;2023-05-14T08:01:25;14.43;;;11.95;;
19754;SDS011;10036;47.812;9.274;2023-05-14T08:03:52;16.10;;;12.57;;
19754;SDS011;10036;47.812;9.274;2023-05-14T08:06:19;14.68;;;11.93;;
19754;SDS011;10036;47.812;9.274;2023-05-14T08:08:46;15.13;;;11.63;;
19754;SDS011;10036;47.812;9.274;2023-05-14T08:11:13;14.23;;;11.20;;
19754;SDS011;10036;47.812;9.274;2023-05-14T08:13:40;16.80;;;12.55;;
19754;SDS011;10036;47.812;9.274;2023-05-14T08:16:08;13.82;;;11.85;;
19754;SDS011;10036;47.812;9.274;2023-05-14T08:18:35;13.55;;;11.45;;
19754;SDS011;10036;47.812;9.274;2023-05-14T08:21:02;13.93;;;11.20;;
19754;SDS011;10036;47.812;9.274;2023-05-14T08:23:29;14.70;;;11.18;;
19754;SDS011;10036;47.812;9.274;2023-05-14T08:25:56;14.13;;;10.40;;
19754;SDS011;10036;47.812;9.274;2023-05-14T08:28:23;12.95;;;11.02;;
19754;SDS011;10036;47.812;9.274;2023-05-14T08:30:50;10.45;;;9.25;;
19754;SDS011;10036;47.812;9.274;2023-05-14T08:33:19;12.82;;;10.43;;
19754;SDS011;10036;47.812;9.274;2023-05-14T08:35:45;11.80;;;9.88;;
19754;SDS011;10036;47.812;9.274;2023-05-14T08:38:12;11.95;;;9.73;;
19754;SDS011;10036;47.812;9.274;2023-05-14T08:40:39;12.43;;;9.45;;
19754;SDS011;10036;47.812;9.274;2023-05-14T08:43:06;11.50;;;9.30;;
19754;SDS011;10036;47.812;9.274;2023-05-14T08:45:36;11.70;;;9.35;;
19754;SDS011;10036;47.812;9.274;2023-05-14T08:48:04;12.30;;;9.70;;
19754;SDS011;10036;47.812;9.274;2023-05-14T08:50:36;11.40;;;9.65;;
19754;SDS011;10036;47.812;9.274;2023-05-14T08:53:03;11.93;;;10.45;;
19754;SDS011;10036;47.812;9.274;2023-05-14T08:55:31;11.73;;;9.75;;
19754;SDS011;10036;47.812;9.274;2023-05-14T08:57:58;12.15;;;10.02;;
19754;SDS011;10036;47.812;9.274;2023-05-14T09:00:26;11.80;;;9.50;;
19754;SDS011;10036;47.812;9.274;2023-05-14T09:02:53;11.63;;;9.68;;
19754;SDS011;10036;47.812;9.274;2023-05-14T09:05:21;11.25;;;9.98;;
19754;SDS011;10036;47.812;9.274;2023-05-14T09:07:50;13.32;;;10.23;;
19754;SDS011;10036;47.812;9.274;2023-05-14T09:10:17;12.23;;;9.63;;
19754;SDS011;10036;47.812;9.274;2023-05-14T09:12:45;11.07;;;9.60;;
19754;SDS011;10036;47.812;9.274;2023-05-14T09:15:11;11.25;;;9.55;;
19754;SDS011;10036;47.812;9.274;2023-05-14T09:17:38;12.55;;;10.35;;
19754;SDS011;10036;47.812;9.274;2023-05-14T09:20:06;12.02;;;9.93;;
19754;SDS011;10036;47.812;9.274;2023-05-14T09:22:34;12.43;;;10.57;;
19754;SDS011;10036;47.812;9.274;2023-05-14T09:28:08;12.30;;;10.20;;
19754;SDS011;10036;47.812;9.274;2023-05-14T09:30:35;13.13;;;10.32;;
19754;SDS011;10036;47.812;9.274;2023-05-14T09:33:02;13.02;;;10.60;;
19754;SDS011;10036;47.812;9.274;2023-05-14T09:38:37;11.70;;;10.23;;
19754;SDS011;10036;47.812;9.274;2023-05-14T09:41:04;11.48;;;9.73;;
19754;SDS011;10036;47.812;9.274;2023-05-14T09:43:32;10.25;;;8.35;;
19754;SDS011;10036;47.812;9.274;2023-05-14T09:45:59;11.02;;;9.68;;
19754;SDS011;10036;47.812;9.274;2023-05-14T09:48:26;11.70;;;8.98;;
19754;SDS011;10036;47.812;9.274;2023-05-14T09:50:53;10.13;;;8.73;;
19754;SDS011;10036;47.812;9.274;2023-05-14T09:53:20;10.13;;;8.23;;
19754;SDS011;10036;47.812;9.274;2023-05-14T09:55:47;10.63;;;7.82;;
19754;SDS011;10036;47.812;9.274;2023-05-14T09:58:14;10.07;;;8.68;;
19754;SDS011;10036;47.812;9.274;2023-05-14T10:00:43;8.60;;;7.70;;
19754;SDS011;10036;47.812;9.274;2023-05-14T10:03:12;9.30;;;8.27;;
19754;SDS011;10036;47.812;9.274;2023-05-14T10:05:40;11.98;;;7.95;;
19754;SDS011;10036;47.812;9.274;2023-05-14T10:08:09;11.25;;;8.10;;
19754;SDS011;10036;47.812;9.274;2023-05-14T10:10:39;9.27;;;8.30;;
19754;SDS011;10036;47.812;9.274;2023-05-14T10:13:07;9.50;;;8.07;;
19754;SDS011;10036;47.812;9.274;2023-05-14T10:15:51;10.30;;;8.23;;
19754;SDS011;10036;47.812;9.274;2023-05-14T10:18:24;8.90;;;8.00;;
19754;SDS011;10036;47.812;9.274;2023-05-14T10:20:56;8.50;;;7.68;;
19754;SDS011;10036;47.812;9.274;2023-05-14T10:23:29;10.68;;;8.73;;
19754;SDS011;10036;47.812;9.274;2023-05-14T10:25:56;8.25;;;7.45;;
19754;SDS011;10036;47.812;9.274;2023-05-14T10:28:23;10.27;;;8.73;;
19754;SDS011;10036;47.812;9.274;2023-05-14T10:30:55;9.65;;;8.18;;
19754;SDS011;10036;47.812;9.274;2023-05-14T10:33:22;9.60;;;8.43;;
19754;SDS011;10036;47.812;9.274;2023-05-14T10:35:49;9.15;;;7.93;;
19754;SDS011;10036;47.812;9.274;2023-05-14T10:38:21;10.23;;;8.70;;
19754;SDS011;10036;47.812;9.274;2023-05-14T10:40:48;10.52;;;9.10;;
19754;SDS011;10036;47.812;9.274;2023-05-14T10:43:15;9.88;;;7.60;;
19754;SDS011;10036;47.812;9.274;2023-05-14T10:45:44;8.27;;;6.78;;
19754;SDS011;10036;47.812;9.274;2023-05-14T10:48:13;8.07;;;7.10;;
19754;SDS011;10036;47.812;9.274;2023-05-14T10:50:40;7.82;;;6.85;;
19754;SDS011;10036;47.812;9.274;2023-05-14T10:53:09;7.57;;;6.85;;
19754;SDS011;10036;47.812;9.274;2023-05-14T10:55:38;7.63;;;6.82;;
19754;SDS011;10036;47.812;9.274;2023-05-14T10:58:05;8.63;;;6.85;;
19754;SDS011;10036;47.812;9.274;2023-05-14T11:00:32;8.35;;;6.68;;
19754;SDS011;10036;47.812;9.274;2023-05-14T11:03:02;7.80;;;6.47;;
19754;SDS011;10036;47.812;9.274;2023-05-14T11:05:32;8.10;;;7.20;;
19754;SDS011;10036;47.812;9.274;2023-05-14T11:08:01;7.82;;;6.32;;
19754;SDS011;10036;47.812;9.274;2023-05-14T11:10:31;8.02;;;6.32;;
19754;SDS011;10036;47.812;9.274;2023-05-14T11:12:59;6.47;;;5.72;;
19754;SDS011;10036;47.812;9.274;2023-05-14T11:15:26;6.43;;;5.72;;
19754;SDS011;10036;47.812;9.274;2023-05-14T11:17:53;7.38;;;6.25;;
19754;SDS011;10036;47.812;9.274;2023-05-14T11:20:20;6.22;;;5.53;;
19754;SDS011;10036;47.812;9.274;2023-05-14T11:22:48;6.82;;;6.13;;
19754;SDS011;10036;47.812;9.274;2023-05-14T11:25:16;7.85;;;6.03;;
19754;SDS011;10036;47.812;9.274;2023-05-14T11:27:43;7.32;;;6.15;;
19754;SDS011;10036;47.812;9.274;2023-05-14T11:30:14;7.20;;;6.13;;
19754;SDS011;10036;47.812;9.274;2023-05-14T11:32:42;8.13;;;6.13;;
19754;SDS011;10036;47.812;9.274;2023-05-14T11:35:10;7.20;;;6.03;;
19754;SDS011;10036;47.812;9.274;2023-05-14T11:37:37;8.93;;;5.82;;
19754;SDS011;10036;47.812;9.274;2023-05-14T11:40:07;6.63;;;5.97;;
19754;SDS011;10036;47.812;9.274;2023-05-14T11:42:40;7.43;;;6.47;;
19754;SDS011;10036;47.812;9.274;2023-05-14T11:45:09;7.22;;;6.50;;
19754;SDS011;10036;47.812;9.274;2023-05-14T11:47:37;6.60;;;6.00;;
19754;SDS011;10036;47.812;9.274;2023-05-14T11:50:04;5.93;;;5.32;;
19754;SDS011;10036;47.812;9.274;2023-05-14T11:52:35;5.38;;;4.88;;
19754;SDS011;10036;47.812;9.274;2023-05-14T11:55:03;5.72;;;5.22;;
19754;SDS011;10036;47.812;9.274;2023-05-14T11:57:32;5.65;;;5.15;;
19754;SDS011;10036;47.812;9.274;2023-05-14T12:00:00;6.95;;;5.10;;
19754;SDS011;10036;47.812;9.274;2023-05-14T12:02:28;6.25;;;5.55;;
19754;SDS011;10036;47.812;9.274;2023-05-14T12:04:55;6.10;;;5.50;;
19754;SDS011;10036;47.812;9.274;2023-05-14T12:07:22;6.30;;;5.70;;
19754;SDS011;10036;47.812;9.274;2023-05-14T12:09:54;7.75;;;5.15;;
19754;SDS011;10036;47.812;9.274;2023-05-14T12:12:26;5.72;;;5.20;;
19754;SDS011;10036;47.812;9.274;2023-05-14T12:15:00;5.45;;;4.95;;
19754;SDS011;10036;47.812;9.274;2023-05-14T12:17:27;5.65;;;4.82;;
19754;SDS011;10036;47.812;9.274;2023-05-14T12:19:55;6.15;;;5.65;;
19754;SDS011;10036;47.812;9.274;2023-05-14T12:22:26;6.10;;;5.60;;
19754;SDS011;10036;47.812;9.274;2023-05-14T12:24:56;6.45;;;5.85;;
19754;SDS011;10036;47.812;9.274;2023-05-14T12:27:25;6.13;;;5.53;;
19754;SDS011;10036;47.812;9.274;2023-05-14T12:29:57;6.30;;;5.47;;
19754;SDS011;10036;47.812;9.274;2023-05-14T12:32:25;6.30;;;5.70;;
19754;SDS011;10036;47.812;9.274;2023-05-14T12:34:52;5.82;;;5.30;;
19754;SDS011;10036;47.812;9.274;2023-05-14T12:37:19;6.30;;;5.35;;
19754;SDS011;10036;47.812;9.274;2023-05-14T12:39:46;5.75;;;5.25;;
19754;SDS011;10036;47.812;9.274;2023-05-14T12:42:13;5.32;;;4.82;;
19754;SDS011;10036;47.812;9.274;2023-05-14T12:44:40;5.93;;;5.28;;
19754;SDS011;10036;47.812;9.274;2023-05-14T12:47:07;6.18;;;5.10;;
19754;SDS011;10036;47.812;9.274;2023-05-14T12:49:35;6.45;;;5.03;;
19754;SDS011;10036;47.812;9.274;2023-05-14T12:52:02;5.68;;;5.18;;
19754;SDS011;10036;47.812;9.274;2023-05-14T12:54:30;5.70;;;5.20;;
19754;SDS011;10036;47.812;9.274;2023-05-14T12:56:57;4.78;;;4.30;;
19754;SDS011;10036;47.812;9.274;2023-05-14T12:59:24;4.70;;;4.30;;
19754;SDS011;10036;47.812;9.274;2023-05-14T13:01:51;5.57;;;5.07;;
19754;SDS011;10036;47.812;9.274;2023-05-14T13:04:18;5.18;;;4.68;;
19754;SDS011;10036;47.812;9.274;2023-05-14T13:06:46;5.50;;;4.72;;
19754;SDS011;10036;47.812;9.274;2023-05-14T13:09:13;5.55;;;4.70;;
19754;SDS011;10036;47.812;9.274;2023-05-14T13:11:40;5.53;;;4.72;;
19754;SDS011;10036;47.812;9.274;2023-05-14T13:14:07;4.95;;;4.45;;
19754;SDS011;10036;47.812;9.274;2023-05-14T13:16:34;4.60;;;4.20;;
19754;SDS011;10036;47.812;9.274;2023-05-14T13:19:01;5.47;;;4.97;;
19754;SDS011;10036;47.812;9.274;2023-05-14T13:21:28;4.78;;;4.28;;
19754;SDS011;10036;47.812;9.274;2023-05-14T13:23:56;5.68;;;5.05;;
19754;SDS011;10036;47.812;9.274;2023-05-14T13:26:23;5.13;;;4.63;;
19754;SDS011;10036;47.812;9.274;2023-05-14T13:28:52;4.90;;;4.50;;
19754;SDS011;10036;47.812;9.274;2023-05-14T13:31:19;4.90;;;4.50;;
19754;SDS011;10036;47.812;9.274;2023-05-14T13:33:46;4.70;;;4.30;;
19754;SDS011;10036;47.812;9.274;2023-05-14T13:36:13;5.28;;;4.50;;
19754;SDS011;10036;47.812;9.274;2023-05-14T13:38:40;4.63;;;4.22;;
19754;SDS011;10036;47.812;9.274;2023-05-14T13:41:08;4.47;;;4.05;;
19754;SDS011;10036;47.812;9.274;2023-05-14T13:43:35;4.82;;;4.10;;
19754;SDS011;10036;47.812;9.274;2023-05-14T13:46:03;4.18;;;3.70;;
19754;SDS011;10036;47.812;9.274;2023-05-14T13:48:30;4.22;;;3.88;;
19754;SDS011;10036;47.812;9.274;2023-05-14T13:50:58;5.35;;;4.18;;
19754;SDS011;10036;47.812;9.274;2023-05-14T13:53:25;4.35;;;3.97;;
19754;SDS011;10036;47.812;9.274;2023-05-14T13:55:52;4.22;;;3.83;;
19754;SDS011;10036;47.812;9.274;2023-05-14T13:58:22;4.40;;;4.00;;
19754;SDS011;10036;47.812;9.274;2023-05-14T14:00:49;4.13;;;3.75;;
19754;SDS011;10036;47.812;9.274;2023-05-14T14:03:16;4.43;;;4.03;;
19754;SDS011;10036;47.812;9.274;2023-05-14T14:05:43;4.07;;;3.75;;
19754;SDS011;10036;47.812;9.274;2023-05-14T14:08:10;3.67;;;3.38;;
19754;SDS011;10036;47.812;9.274;2023-05-14T14:10:37;4.43;;;3.97;;
19754;SDS011;10036;47.812;9.274;2023-05-14T14:13:06;5.10;;;3.20;;
19754;SDS011;10036;47.812;9.274;2023-05-14T14:15:35;3.72;;;3.42;;
19754;SDS011;10036;47.812;9.274;2023-05-14T14:18:02;3.72;;;3.42;;
19754;SDS011;10036;47.812;9.274;2023-05-14T14:20:32;4.00;;;3.60;;
19754;SDS011;10036;47.812;9.274;2023-05-14T14:22:59;3.03;;;2.83;;
19754;SDS011;10036;47.812;9.274;2023-05-14T14:25:28;3.70;;;3.40;;
19754;SDS011;10036;47.812;9.274;2023-05-14T14:27:55;3.20;;;3.00;;
19754;SDS011;10036;47.812;9.274;2023-05-14T14:30:22;3.22;;;3.00;;
19754;SDS011;10036;47.812;9.274;2023-05-14T14:32:50;3.40;;;3.10;;
19754;SDS011;10036;47.812;9.274;2023-05-14T14:35:17;3.45;;;3.15;;
19754;SDS011;10036;47.812;9.274;2023-05-14T14:37:45;3.03;;;2.83;;
19754;SDS011;10036;47.812;9.274;2023-05-14T14:40:14;3.15;;;2.95;;